Beaver Creek, Minnesota
Current Conditions -  °F | °C
As of 7:14 PM on Tuesday 21 Oct 2014 (Local Time) from KLYV Reporting Station
Clear Clear  
Wind Chill: 63°   Ceiling: Unl
Heat Index: 63°   Visibility: 10mi
Dew Point: 41°   Wind: 12mph
Humidity: 45%   Direction: 140°SE
Pressure: 30.02"   Gusts: NA
Location:  43.61°N, 96.36°W
Report Text: KLYV 220014Z AUTO 14010KT 10SM CLR 17/05 A3002 RMK AO2
Loading
Personal Weather Stations






























Interactive Weather Map
Tropical Storm Tracking
New forecast layout! Learn more

10-Day Weather Forecast

Advertisements
Track Severe Weather on mobile